sensor_id;sensor_type;location;lat;lon;timestamp;temperature;humidity
39925;DHT22;25592;49.986;11.618;2022-07-23T00:01:12;26.70;58.50
39925;DHT22;25592;49.986;11.618;2022-07-23T00:03:58;26.70;58.60
39925;DHT22;25592;49.986;11.618;2022-07-23T00:06:44;26.70;59.00
39925;DHT22;25592;49.986;11.618;2022-07-23T00:09:29;26.70;59.10
39925;DHT22;25592;49.986;11.618;2022-07-23T00:12:16;26.70;59.40
39925;DHT22;25592;49.986;11.618;2022-07-23T00:15:02;26.60;59.50
39925;DHT22;25592;49.986;11.618;2022-07-23T00:17:49;26.60;59.50
39925;DHT22;25592;49.986;11.618;2022-07-23T00:20:35;26.50;59.40
39925;DHT22;25592;49.986;11.618;2022-07-23T00:23:20;26.60;59.90
39925;DHT22;25592;49.986;11.618;2022-07-23T00:26:06;26.60;60.20
39925;DHT22;25592;49.986;11.618;2022-07-23T00:28:52;26.60;59.80
39925;DHT22;25592;49.986;11.618;2022-07-23T00:31:38;26.70;59.80
39925;DHT22;25592;49.986;11.618;2022-07-23T00:34:23;26.60;59.30
39925;DHT22;25592;49.986;11.618;2022-07-23T00:37:09;26.60;59.60
39925;DHT22;25592;49.986;11.618;2022-07-23T00:39:54;26.50;60.30
39925;DHT22;25592;49.986;11.618;2022-07-23T00:42:39;26.50;60.40
39925;DHT22;25592;49.986;11.618;2022-07-23T00:45:25;26.40;60.00
39925;DHT22;25592;49.986;11.618;2022-07-23T00:48:10;26.40;60.30
39925;DHT22;25592;49.986;11.618;2022-07-23T00:50:56;26.40;60.00
39925;DHT22;25592;49.986;11.618;2022-07-23T00:53:42;26.40;59.60
39925;DHT22;25592;49.986;11.618;2022-07-23T00:56:29;26.40;59.70
39925;DHT22;25592;49.986;11.618;2022-07-23T00:59:15;26.40;59.90
39925;DHT22;25592;49.986;11.618;2022-07-23T01:02:00;26.40;60.00
39925;DHT22;25592;49.986;11.618;2022-07-23T01:04:46;26.40;59.90
39925;DHT22;25592;49.986;11.618;2022-07-23T01:07:31;26.40;60.00
39925;DHT22;25592;49.986;11.618;2022-07-23T01:10:18;26.20;59.50
39925;DHT22;25592;49.986;11.618;2022-07-23T01:13:20;26.20;59.50
39925;DHT22;25592;49.986;11.618;2022-07-23T01:16:06;26.10;60.60
39925;DHT22;25592;49.986;11.618;2022-07-23T01:18:54;26.00;60.50
39925;DHT22;25592;49.986;11.618;2022-07-23T01:21:42;25.90;59.80
39925;DHT22;25592;49.986;11.618;2022-07-23T01:24:28;25.80;61.50
39925;DHT22;25592;49.986;11.618;2022-07-23T01:27:14;25.80;60.60
39925;DHT22;25592;49.986;11.618;2022-07-23T01:30:00;25.80;61.20
39925;DHT22;25592;49.986;11.618;2022-07-23T01:32:46;25.90;60.70
39925;DHT22;25592;49.986;11.618;2022-07-23T01:35:31;25.70;61.60
39925;DHT22;25592;49.986;11.618;2022-07-23T01:38:17;25.60;59.90
39925;DHT22;25592;49.986;11.618;2022-07-23T01:41:02;25.70;60.80
39925;DHT22;25592;49.986;11.618;2022-07-23T01:43:50;25.60;61.00
39925;DHT22;25592;49.986;11.618;2022-07-23T01:46:35;25.70;61.70
39925;DHT22;25592;49.986;11.618;2022-07-23T01:49:20;25.80;61.50
39925;DHT22;25592;49.986;11.618;2022-07-23T01:52:06;25.80;61.80
39925;DHT22;25592;49.986;11.618;2022-07-23T01:54:55;25.80;61.70
39925;DHT22;25592;49.986;11.618;2022-07-23T01:57:41;25.60;61.70
39925;DHT22;25592;49.986;11.618;2022-07-23T02:00:26;25.70;61.70
39925;DHT22;25592;49.986;11.618;2022-07-23T02:03:11;25.70;61.40
39925;DHT22;25592;49.986;11.618;2022-07-23T02:05:57;25.80;61.60
39925;DHT22;25592;49.986;11.618;2022-07-23T02:08:42;25.70;61.50
39925;DHT22;25592;49.986;11.618;2022-07-23T02:11:28;25.70;61.60
39925;DHT22;25592;49.986;11.618;2022-07-23T02:14:13;25.70;62.20
39925;DHT22;25592;49.986;11.618;2022-07-23T02:16:59;25.70;61.90
39925;DHT22;25592;49.986;11.618;2022-07-23T02:19:44;25.70;61.30
39925;DHT22;25592;49.986;11.618;2022-07-23T02:22:29;25.60;62.00
39925;DHT22;25592;49.986;11.618;2022-07-23T02:25:15;25.40;62.20
39925;DHT22;25592;49.986;11.618;2022-07-23T02:28:00;25.40;62.80
39925;DHT22;25592;49.986;11.618;2022-07-23T02:30:45;25.50;62.30
39925;DHT22;25592;49.986;11.618;2022-07-23T02:33:31;25.40;62.50
39925;DHT22;25592;49.986;11.618;2022-07-23T02:36:16;25.50;62.90
39925;DHT22;25592;49.986;11.618;2022-07-23T02:39:01;25.50;62.90
39925;DHT22;25592;49.986;11.618;2022-07-23T02:41:47;25.40;63.10
39925;DHT22;25592;49.986;11.618;2022-07-23T02:44:33;25.40;63.00
39925;DHT22;25592;49.986;11.618;2022-07-23T02:47:18;25.40;62.90
39925;DHT22;25592;49.986;11.618;2022-07-23T02:50:04;25.40;63.10
39925;DHT22;25592;49.986;11.618;2022-07-23T02:52:50;25.40;63.40
39925;DHT22;25592;49.986;11.618;2022-07-23T02:55:35;25.40;63.20
39925;DHT22;25592;49.986;11.618;2022-07-23T02:58:21;25.40;63.40
39925;DHT22;25592;49.986;11.618;2022-07-23T03:01:06;25.30;63.70
39925;DHT22;25592;49.986;11.618;2022-07-23T03:03:52;25.30;63.50
39925;DHT22;25592;49.986;11.618;2022-07-23T03:06:38;25.30;63.80
39925;DHT22;25592;49.986;11.618;2022-07-23T03:09:23;25.30;63.80
39925;DHT22;25592;49.986;11.618;2022-07-23T03:12:08;25.20;64.00
39925;DHT22;25592;49.986;11.618;2022-07-23T03:14:58;25.20;64.00
39925;DHT22;25592;49.986;11.618;2022-07-23T03:17:44;25.20;64.30
39925;DHT22;25592;49.986;11.618;2022-07-23T03:20:29;25.20;63.80
39925;DHT22;25592;49.986;11.618;2022-07-23T03:23:16;25.20;64.40
39925;DHT22;25592;49.986;11.618;2022-07-23T03:26:01;25.10;63.30
39925;DHT22;25592;49.986;11.618;2022-07-23T03:28:46;25.10;63.90
39925;DHT22;25592;49.986;11.618;2022-07-23T03:31:32;25.10;63.50
39925;DHT22;25592;49.986;11.618;2022-07-23T03:34:17;25.10;63.00
39925;DHT22;25592;49.986;11.618;2022-07-23T03:37:03;25.00;63.30
39925;DHT22;25592;49.986;11.618;2022-07-23T03:39:50;24.90;63.50
39925;DHT22;25592;49.986;11.618;2022-07-23T03:42:35;24.80;63.50
39925;DHT22;25592;49.986;11.618;2022-07-23T03:45:22;24.80;63.20
39925;DHT22;25592;49.986;11.618;2022-07-23T03:48:08;24.80;63.50
39925;DHT22;25592;49.986;11.618;2022-07-23T03:50:53;24.80;63.70
39925;DHT22;25592;49.986;11.618;2022-07-23T03:53:39;24.80;63.70
39925;DHT22;25592;49.986;11.618;2022-07-23T03:56:24;24.80;63.60
39925;DHT22;25592;49.986;11.618;2022-07-23T03:59:11;24.80;63.80
39925;DHT22;25592;49.986;11.618;2022-07-23T04:01:56;24.80;63.70
39925;DHT22;25592;49.986;11.618;2022-07-23T04:04:41;24.80;63.40
39925;DHT22;25592;49.986;11.618;2022-07-23T04:07:27;24.80;63.40
39925;DHT22;25592;49.986;11.618;2022-07-23T04:10:12;24.80;63.90
39925;DHT22;25592;49.986;11.618;2022-07-23T04:12:57;24.70;64.30
39925;DHT22;25592;49.986;11.618;2022-07-23T04:15:43;24.70;64.50
39925;DHT22;25592;49.986;11.618;2022-07-23T04:18:28;24.60;64.70
39925;DHT22;25592;49.986;11.618;2022-07-23T04:21:13;24.60;64.70
39925;DHT22;25592;49.986;11.618;2022-07-23T04:23:59;24.60;64.00
39925;DHT22;25592;49.986;11.618;2022-07-23T04:26:45;24.60;64.40
39925;DHT22;25592;49.986;11.618;2022-07-23T04:29:31;24.60;64.50
39925;DHT22;25592;49.986;11.618;2022-07-23T04:32:16;24.60;64.90
39925;DHT22;25592;49.986;11.618;2022-07-23T04:35:01;24.50;65.40
39925;DHT22;25592;49.986;11.618;2022-07-23T04:37:47;24.50;65.40
39925;DHT22;25592;49.986;11.618;2022-07-23T04:40:32;24.50;65.70
39925;DHT22;25592;49.986;11.618;2022-07-23T04:43:19;24.50;64.80
39925;DHT22;25592;49.986;11.618;2022-07-23T04:46:04;24.60;64.40
39925;DHT22;25592;49.986;11.618;2022-07-23T04:48:51;24.60;65.30
39925;DHT22;25592;49.986;11.618;2022-07-23T04:51:36;24.60;65.40
39925;DHT22;25592;49.986;11.618;2022-07-23T04:54:22;24.60;65.80
39925;DHT22;25592;49.986;11.618;2022-07-23T04:57:07;24.50;65.90
39925;DHT22;25592;49.986;11.618;2022-07-23T04:59:52;24.60;65.60
39925;DHT22;25592;49.986;11.618;2022-07-23T05:02:37;24.70;65.30
39925;DHT22;25592;49.986;11.618;2022-07-23T05:05:23;24.60;65.80
39925;DHT22;25592;49.986;11.618;2022-07-23T05:08:08;24.60;65.30
39925;DHT22;25592;49.986;11.618;2022-07-23T05:10:54;24.80;65.80
39925;DHT22;25592;49.986;11.618;2022-07-23T05:13:39;24.80;65.60
39925;DHT22;25592;49.986;11.618;2022-07-23T05:16:24;24.90;65.20
39925;DHT22;25592;49.986;11.618;2022-07-23T05:19:10;24.80;65.30
39925;DHT22;25592;49.986;11.618;2022-07-23T05:21:55;24.60;66.20
39925;DHT22;25592;49.986;11.618;2022-07-23T05:24:41;24.60;66.80
39925;DHT22;25592;49.986;11.618;2022-07-23T05:27:28;24.80;65.70
39925;DHT22;25592;49.986;11.618;2022-07-23T05:30:13;24.80;66.20
39925;DHT22;25592;49.986;11.618;2022-07-23T05:32:59;24.70;66.10
39925;DHT22;25592;49.986;11.618;2022-07-23T05:35:44;24.60;66.50
39925;DHT22;25592;49.986;11.618;2022-07-23T05:38:30;24.70;66.60
39925;DHT22;25592;49.986;11.618;2022-07-23T05:41:16;24.60;66.50
39925;DHT22;25592;49.986;11.618;2022-07-23T05:44:01;24.70;66.70
39925;DHT22;25592;49.986;11.618;2022-07-23T05:46:47;24.80;66.60
39925;DHT22;25592;49.986;11.618;2022-07-23T05:49:32;24.90;66.40
39925;DHT22;25592;49.986;11.618;2022-07-23T05:52:17;24.80;66.70
39925;DHT22;25592;49.986;11.618;2022-07-23T05:55:03;24.80;66.60
39925;DHT22;25592;49.986;11.618;2022-07-23T05:57:49;25.00;66.40
39925;DHT22;25592;49.986;11.618;2022-07-23T06:00:34;25.00;66.50
39925;DHT22;25592;49.986;11.618;2022-07-23T06:03:19;25.00;66.00
39925;DHT22;25592;49.986;11.618;2022-07-23T06:06:06;25.20;66.10
39925;DHT22;25592;49.986;11.618;2022-07-23T06:08:51;25.10;66.00
39925;DHT22;25592;49.986;11.618;2022-07-23T06:11:36;25.20;65.50
39925;DHT22;25592;49.986;11.618;2022-07-23T06:14:22;25.30;66.10
39925;DHT22;25592;49.986;11.618;2022-07-23T06:17:07;25.40;65.70
39925;DHT22;25592;49.986;11.618;2022-07-23T06:19:53;25.40;65.50
39925;DHT22;25592;49.986;11.618;2022-07-23T06:22:39;25.50;65.60
39925;DHT22;25592;49.986;11.618;2022-07-23T06:25:24;25.70;65.60
39925;DHT22;25592;49.986;11.618;2022-07-23T06:28:10;25.80;65.20
39925;DHT22;25592;49.986;11.618;2022-07-23T06:30:55;25.80;65.40
39925;DHT22;25592;49.986;11.618;2022-07-23T06:33:42;26.00;65.00
39925;DHT22;25592;49.986;11.618;2022-07-23T06:36:27;25.90;64.60
39925;DHT22;25592;49.986;11.618;2022-07-23T06:39:12;25.80;65.00
39925;DHT22;25592;49.986;11.618;2022-07-23T06:41:59;25.80;65.10
39925;DHT22;25592;49.986;11.618;2022-07-23T06:44:46;25.90;64.60
39925;DHT22;25592;49.986;11.618;2022-07-23T06:47:32;25.90;64.50
39925;DHT22;25592;49.986;11.618;2022-07-23T06:50:18;26.10;64.60
39925;DHT22;25592;49.986;11.618;2022-07-23T06:53:03;26.10;64.80
39925;DHT22;25592;49.986;11.618;2022-07-23T06:55:49;26.10;65.30
39925;DHT22;25592;49.986;11.618;2022-07-23T06:58:34;26.30;64.40
39925;DHT22;25592;49.986;11.618;2022-07-23T07:01:19;26.30;64.40
39925;DHT22;25592;49.986;11.618;2022-07-23T07:04:05;26.10;64.70
39925;DHT22;25592;49.986;11.618;2022-07-23T07:06:50;26.10;64.90
39925;DHT22;25592;49.986;11.618;2022-07-23T07:09:36;26.10;64.70
39925;DHT22;25592;49.986;11.618;2022-07-23T07:12:21;25.80;64.90
39925;DHT22;25592;49.986;11.618;2022-07-23T07:15:07;25.70;65.60
39925;DHT22;25592;49.986;11.618;2022-07-23T07:17:52;25.70;65.60
39925;DHT22;25592;49.986;11.618;2022-07-23T07:20:38;25.60;65.80
39925;DHT22;25592;49.986;11.618;2022-07-23T07:23:23;25.80;65.70
39925;DHT22;25592;49.986;11.618;2022-07-23T07:26:09;25.90;65.80
39925;DHT22;25592;49.986;11.618;2022-07-23T07:28:54;26.00;65.50
39925;DHT22;25592;49.986;11.618;2022-07-23T07:31:39;26.00;65.50
39925;DHT22;25592;49.986;11.618;2022-07-23T07:34:25;26.10;65.70
39925;DHT22;25592;49.986;11.618;2022-07-23T07:37:10;26.10;66.10
39925;DHT22;25592;49.986;11.618;2022-07-23T07:39:56;26.30;65.80
39925;DHT22;25592;49.986;11.618;2022-07-23T07:42:49;26.40;65.40
39925;DHT22;25592;49.986;11.618;2022-07-23T07:45:34;26.50;65.00
39925;DHT22;25592;49.986;11.618;2022-07-23T07:48:20;26.80;65.10
39925;DHT22;25592;49.986;11.618;2022-07-23T07:51:05;26.70;64.10
39925;DHT22;25592;49.986;11.618;2022-07-23T07:53:51;26.80;64.60
39925;DHT22;25592;49.986;11.618;2022-07-23T07:56:37;26.80;64.10
39925;DHT22;25592;49.986;11.618;2022-07-23T07:59:24;26.70;64.10
39925;DHT22;25592;49.986;11.618;2022-07-23T08:02:16;26.70;64.60
39925;DHT22;25592;49.986;11.618;2022-07-23T08:05:01;26.70;64.50
39925;DHT22;25592;49.986;11.618;2022-07-23T08:07:46;26.70;64.60
39925;DHT22;25592;49.986;11.618;2022-07-23T08:10:32;26.80;64.50
39925;DHT22;25592;49.986;11.618;2022-07-23T08:13:17;26.90;63.80
39925;DHT22;25592;49.986;11.618;2022-07-23T08:16:03;26.90;63.70
39925;DHT22;25592;49.986;11.618;2022-07-23T08:18:52;27.10;63.20
39925;DHT22;25592;49.986;11.618;2022-07-23T08:21:38;27.20;63.30
39925;DHT22;25592;49.986;11.618;2022-07-23T08:24:23;27.20;62.70
39925;DHT22;25592;49.986;11.618;2022-07-23T08:27:08;27.00;62.30
39925;DHT22;25592;49.986;11.618;2022-07-23T08:29:54;26.80;61.50
39925;DHT22;25592;49.986;11.618;2022-07-23T08:33:00;26.60;62.30
39925;DHT22;25592;49.986;11.618;2022-07-23T08:35:48;26.70;62.30
39925;DHT22;25592;49.986;11.618;2022-07-23T08:38:35;26.80;62.20
39925;DHT22;25592;49.986;11.618;2022-07-23T08:41:20;26.80;62.00
39925;DHT22;25592;49.986;11.618;2022-07-23T08:44:07;26.80;61.80
39925;DHT22;25592;49.986;11.618;2022-07-23T08:46:53;26.40;62.80
39925;DHT22;25592;49.986;11.618;2022-07-23T08:49:39;26.50;63.60
39925;DHT22;25592;49.986;11.618;2022-07-23T08:52:26;26.40;63.60
39925;DHT22;25592;49.986;11.618;2022-07-23T08:55:12;26.60;63.40
39925;DHT22;25592;49.986;11.618;2022-07-23T08:57:57;26.70;63.30
39925;DHT22;25592;49.986;11.618;2022-07-23T09:00:43;26.70;62.90
39925;DHT22;25592;49.986;11.618;2022-07-23T09:03:31;26.50;63.10
39925;DHT22;25592;49.986;11.618;2022-07-23T09:06:16;26.60;63.00
39925;DHT22;25592;49.986;11.618;2022-07-23T09:09:18;26.60;63.00
39925;DHT22;25592;49.986;11.618;2022-07-23T09:12:05;26.50;63.00
39925;DHT22;25592;49.986;11.618;2022-07-23T09:14:50;26.40;62.90
39925;DHT22;25592;49.986;11.618;2022-07-23T09:17:42;26.30;63.00
39925;DHT22;25592;49.986;11.618;2022-07-23T09:20:27;26.20;63.30
39925;DHT22;25592;49.986;11.618;2022-07-23T09:23:13;26.30;63.30
39925;DHT22;25592;49.986;11.618;2022-07-23T09:26:00;26.30;63.30
39925;DHT22;25592;49.986;11.618;2022-07-23T09:29:10;26.30;63.90
39925;DHT22;25592;49.986;11.618;2022-07-23T09:32:00;26.30;63.60
39925;DHT22;25592;49.986;11.618;2022-07-23T09:34:49;26.30;63.80
39925;DHT22;25592;49.986;11.618;2022-07-23T09:37:34;26.30;63.70
39925;DHT22;25592;49.986;11.618;2022-07-23T09:40:20;26.40;63.60
39925;DHT22;25592;49.986;11.618;2022-07-23T09:43:05;26.20;63.70
39925;DHT22;25592;49.986;11.618;2022-07-23T09:45:51;26.20;64.10
39925;DHT22;25592;49.986;11.618;2022-07-23T09:48:36;26.30;64.40
39925;DHT22;25592;49.986;11.618;2022-07-23T09:51:22;26.60;64.30
39925;DHT22;25592;49.986;11.618;2022-07-23T09:57:19;26.90;63.40
39925;DHT22;25592;49.986;11.618;2022-07-23T10:00:07;27.10;63.30
39925;DHT22;25592;49.986;11.618;2022-07-23T10:02:55;27.00;63.30
39925;DHT22;25592;49.986;11.618;2022-07-23T10:05:41;27.00;64.20
39925;DHT22;25592;49.986;11.618;2022-07-23T10:08:30;27.00;64.40
39925;DHT22;25592;49.986;11.618;2022-07-23T10:11:16;27.20;64.70
39925;DHT22;25592;49.986;11.618;2022-07-23T10:14:03;27.20;64.10
39925;DHT22;25592;49.986;11.618;2022-07-23T10:16:50;26.90;64.10
39925;DHT22;25592;49.986;11.618;2022-07-23T10:19:36;26.90;64.40
39925;DHT22;25592;49.986;11.618;2022-07-23T10:22:30;26.90;64.90
39925;DHT22;25592;49.986;11.618;2022-07-23T10:25:22;26.90;64.60
39925;DHT22;25592;49.986;11.618;2022-07-23T10:28:16;26.80;64.80
39925;DHT22;25592;49.986;11.618;2022-07-23T10:34:31;26.70;65.00
39925;DHT22;25592;49.986;11.618;2022-07-23T10:37:41;26.70;65.40
39925;DHT22;25592;49.986;11.618;2022-07-23T10:40:27;26.80;64.90
39925;DHT22;25592;49.986;11.618;2022-07-23T10:43:16;27.20;64.50
39925;DHT22;25592;49.986;11.618;2022-07-23T10:46:35;27.60;64.10
39925;DHT22;25592;49.986;11.618;2022-07-23T10:49:31;27.80;62.90
39925;DHT22;25592;49.986;11.618;2022-07-23T10:52:26;27.60;63.10
39925;DHT22;25592;49.986;11.618;2022-07-23T10:57:56;28.20;62.10
39925;DHT22;25592;49.986;11.618;2022-07-23T11:00:42;28.40;61.40
39925;DHT22;25592;49.986;11.618;2022-07-23T11:03:30;28.70;61.50
39925;DHT22;25592;49.986;11.618;2022-07-23T11:06:17;28.60;60.90
39925;DHT22;25592;49.986;11.618;2022-07-23T11:15:06;29.00;59.80
39925;DHT22;25592;49.986;11.618;2022-07-23T11:20:37;28.90;60.90
39925;DHT22;25592;49.986;11.618;2022-07-23T11:23:23;28.90;60.80
39925;DHT22;25592;49.986;11.618;2022-07-23T11:32:34;28.70;61.00
39925;DHT22;25592;49.986;11.618;2022-07-23T11:35:23;28.70;61.60
39925;DHT22;25592;49.986;11.618;2022-07-23T11:38:18;28.80;61.20
39925;DHT22;25592;49.986;11.618;2022-07-23T11:41:04;29.00;61.60
39925;DHT22;25592;49.986;11.618;2022-07-23T11:43:49;29.40;61.10
39925;DHT22;25592;49.986;11.618;2022-07-23T11:46:38;29.50;60.10
39925;DHT22;25592;49.986;11.618;2022-07-23T11:49:29;29.80;59.90
39925;DHT22;25592;49.986;11.618;2022-07-23T11:52:22;29.80;59.80
39925;DHT22;25592;49.986;11.618;2022-07-23T11:55:11;29.90;59.70
39925;DHT22;25592;49.986;11.618;2022-07-23T11:58:00;29.60;59.40
39925;DHT22;25592;49.986;11.618;2022-07-23T12:00:51;29.60;59.50
39925;DHT22;25592;49.986;11.618;2022-07-23T12:03:50;29.80;59.60
39925;DHT22;25592;49.986;11.618;2022-07-23T12:06:39;29.80;59.80
39925;DHT22;25592;49.986;11.618;2022-07-23T12:09:30;29.90;59.60
39925;DHT22;25592;49.986;11.618;2022-07-23T12:12:26;29.80;59.60
39925;DHT22;25592;49.986;11.618;2022-07-23T12:15:20;29.80;60.00
39925;DHT22;25592;49.986;11.618;2022-07-23T12:18:12;30.10;60.30
39925;DHT22;25592;49.986;11.618;2022-07-23T12:21:04;30.60;58.30
39925;DHT22;25592;49.986;11.618;2022-07-23T12:23:51;30.80;56.10
39925;DHT22;25592;49.986;11.618;2022-07-23T12:26:38;30.60;57.20
39925;DHT22;25592;49.986;11.618;2022-07-23T12:29:39;30.70;56.00
39925;DHT22;25592;49.986;11.618;2022-07-23T12:32:33;30.90;56.40
39925;DHT22;25592;49.986;11.618;2022-07-23T12:35:37;31.00;56.20
39925;DHT22;25592;49.986;11.618;2022-07-23T12:38:28;30.70;55.80
39925;DHT22;25592;49.986;11.618;2022-07-23T12:41:24;30.70;55.80
39925;DHT22;25592;49.986;11.618;2022-07-23T12:44:19;30.50;56.20
39925;DHT22;25592;49.986;11.618;2022-07-23T12:47:10;30.20;56.60
39925;DHT22;25592;49.986;11.618;2022-07-23T12:49:56;30.30;57.00
39925;DHT22;25592;49.986;11.618;2022-07-23T12:52:46;30.10;56.80
39925;DHT22;25592;49.986;11.618;2022-07-23T12:55:36;30.00;56.60
39925;DHT22;25592;49.986;11.618;2022-07-23T12:58:47;30.00;56.90
39925;DHT22;25592;49.986;11.618;2022-07-23T13:01:39;30.10;56.40
39925;DHT22;25592;49.986;11.618;2022-07-23T13:04:30;30.30;56.30
39925;DHT22;25592;49.986;11.618;2022-07-23T13:07:17;30.50;55.90
39925;DHT22;25592;49.986;11.618;2022-07-23T13:10:07;30.60;55.30
39925;DHT22;25592;49.986;11.618;2022-07-23T13:12:59;30.40;55.20
39925;DHT22;25592;49.986;11.618;2022-07-23T13:15:44;30.60;55.30
39925;DHT22;25592;49.986;11.618;2022-07-23T13:18:33;31.00;54.30
39925;DHT22;25592;49.986;11.618;2022-07-23T13:21:19;31.20;53.40
39925;DHT22;25592;49.986;11.618;2022-07-23T13:24:10;31.20;53.90
39925;DHT22;25592;49.986;11.618;2022-07-23T13:26:58;31.00;54.10
39925;DHT22;25592;49.986;11.618;2022-07-23T13:29:49;31.40;53.70
39925;DHT22;25592;49.986;11.618;2022-07-23T13:32:45;31.40;53.30
39925;DHT22;25592;49.986;11.618;2022-07-23T13:35:37;31.80;52.30
39925;DHT22;25592;49.986;11.618;2022-07-23T13:38:29;31.90;52.50
39925;DHT22;25592;49.986;11.618;2022-07-23T13:41:23;31.90;52.00
39925;DHT22;25592;49.986;11.618;2022-07-23T13:44:10;31.80;52.20
39925;DHT22;25592;49.986;11.618;2022-07-23T13:47:07;31.60;51.60
39925;DHT22;25592;49.986;11.618;2022-07-23T13:49:59;31.40;51.10
39925;DHT22;25592;49.986;11.618;2022-07-23T13:52:50;31.00;52.00
39925;DHT22;25592;49.986;11.618;2022-07-23T13:55:58;30.90;52.10
39925;DHT22;25592;49.986;11.618;2022-07-23T13:58:47;31.10;51.80
39925;DHT22;25592;49.986;11.618;2022-07-23T14:01:34;30.90;51.50
39925;DHT22;25592;49.986;11.618;2022-07-23T14:04:40;30.70;52.00
39925;DHT22;25592;49.986;11.618;2022-07-23T14:07:26;30.80;52.10
39925;DHT22;25592;49.986;11.618;2022-07-23T14:10:12;30.90;52.90
39925;DHT22;25592;49.986;11.618;2022-07-23T14:12:59;30.80;53.30
39925;DHT22;25592;49.986;11.618;2022-07-23T14:15:45;30.80;53.70
39925;DHT22;25592;49.986;11.618;2022-07-23T14:18:31;30.70;53.60
39925;DHT22;25592;49.986;11.618;2022-07-23T14:21:18;30.70;54.20
39925;DHT22;25592;49.986;11.618;2022-07-23T14:24:04;30.60;54.30
39925;DHT22;25592;49.986;11.618;2022-07-23T14:26:50;30.80;54.40
39925;DHT22;25592;49.986;11.618;2022-07-23T14:29:36;30.70;54.00
39925;DHT22;25592;49.986;11.618;2022-07-23T14:32:22;30.50;54.20
39925;DHT22;25592;49.986;11.618;2022-07-23T14:35:08;30.40;55.00
39925;DHT22;25592;49.986;11.618;2022-07-23T14:37:55;30.20;55.40
39925;DHT22;25592;49.986;11.618;2022-07-23T14:40:41;30.40;55.60
39925;DHT22;25592;49.986;11.618;2022-07-23T14:43:27;30.50;55.50
39925;DHT22;25592;49.986;11.618;2022-07-23T14:46:13;30.50;55.10
39925;DHT22;25592;49.986;11.618;2022-07-23T14:48:58;30.80;54.80
39925;DHT22;25592;49.986;11.618;2022-07-23T14:51:45;31.20;54.00
39925;DHT22;25592;49.986;11.618;2022-07-23T14:54:31;31.00;53.80
39925;DHT22;25592;49.986;11.618;2022-07-23T14:57:16;30.60;54.30
39925;DHT22;25592;49.986;11.618;2022-07-23T15:00:04;30.60;54.50
39925;DHT22;25592;49.986;11.618;2022-07-23T15:02:51;30.40;54.50
39925;DHT22;25592;49.986;11.618;2022-07-23T15:05:39;30.70;54.90
39925;DHT22;25592;49.986;11.618;2022-07-23T15:08:24;30.70;54.60
39925;DHT22;25592;49.986;11.618;2022-07-23T15:11:11;31.00;54.30
39925;DHT22;25592;49.986;11.618;2022-07-23T15:13:56;31.10;54.10
39925;DHT22;25592;49.986;11.618;2022-07-23T15:16:42;31.10;54.00
39925;DHT22;25592;49.986;11.618;2022-07-23T15:19:28;30.90;54.20
39925;DHT22;25592;49.986;11.618;2022-07-23T15:22:15;31.00;53.30
39925;DHT22;25592;49.986;11.618;2022-07-23T15:25:00;30.90;54.20
39925;DHT22;25592;49.986;11.618;2022-07-23T15:27:46;31.10;53.90
39925;DHT22;25592;49.986;11.618;2022-07-23T15:30:33;31.10;53.30
39925;DHT22;25592;49.986;11.618;2022-07-23T15:33:19;31.40;53.30
39925;DHT22;25592;49.986;11.618;2022-07-23T15:36:06;31.60;52.60
39925;DHT22;25592;49.986;11.618;2022-07-23T15:38:52;31.70;52.90
39925;DHT22;25592;49.986;11.618;2022-07-23T15:41:37;31.60;52.00
39925;DHT22;25592;49.986;11.618;2022-07-23T15:44:23;31.70;52.20
39925;DHT22;25592;49.986;11.618;2022-07-23T15:47:15;31.50;52.50
39925;DHT22;25592;49.986;11.618;2022-07-23T15:50:01;30.90;52.60
39925;DHT22;25592;49.986;11.618;2022-07-23T15:52:47;30.70;53.70
39925;DHT22;25592;49.986;11.618;2022-07-23T15:55:32;30.50;53.40
39925;DHT22;25592;49.986;11.618;2022-07-23T15:58:21;30.40;53.30
39925;DHT22;25592;49.986;11.618;2022-07-23T16:01:09;30.30;53.60
39925;DHT22;25592;49.986;11.618;2022-07-23T16:03:57;30.10;53.30
39925;DHT22;25592;49.986;11.618;2022-07-23T16:06:43;30.00;54.10
39925;DHT22;25592;49.986;11.618;2022-07-23T16:09:35;29.90;54.60
39925;DHT22;25592;49.986;11.618;2022-07-23T16:12:21;29.90;54.70
39925;DHT22;25592;49.986;11.618;2022-07-23T16:15:06;30.00;53.90
39925;DHT22;25592;49.986;11.618;2022-07-23T16:17:54;30.30;53.70
39925;DHT22;25592;49.986;11.618;2022-07-23T16:20:40;30.50;53.40
39925;DHT22;25592;49.986;11.618;2022-07-23T16:23:25;30.80;52.60
39925;DHT22;25592;49.986;11.618;2022-07-23T16:26:12;31.10;52.60
39925;DHT22;25592;49.986;11.618;2022-07-23T16:28:58;31.20;51.80
39925;DHT22;25592;49.986;11.618;2022-07-23T16:31:44;31.50;51.90
39925;DHT22;25592;49.986;11.618;2022-07-23T16:34:29;31.60;51.70
39925;DHT22;25592;49.986;11.618;2022-07-23T16:37:15;31.50;50.70
39925;DHT22;25592;49.986;11.618;2022-07-23T16:40:01;31.50;50.50
39925;DHT22;25592;49.986;11.618;2022-07-23T16:42:47;31.20;50.20
39925;DHT22;25592;49.986;11.618;2022-07-23T16:45:32;31.20;50.30
39925;DHT22;25592;49.986;11.618;2022-07-23T16:48:18;31.50;50.00
39925;DHT22;25592;49.986;11.618;2022-07-23T16:51:06;31.40;49.20
39925;DHT22;25592;49.986;11.618;2022-07-23T16:53:52;31.10;50.20
39925;DHT22;25592;49.986;11.618;2022-07-23T16:56:40;31.00;48.60
39925;DHT22;25592;49.986;11.618;2022-07-23T16:59:26;31.00;48.50
39925;DHT22;25592;49.986;11.618;2022-07-23T17:02:11;30.70;47.80
39925;DHT22;25592;49.986;11.618;2022-07-23T17:04:56;30.60;47.50
39925;DHT22;25592;49.986;11.618;2022-07-23T17:07:42;30.70;47.40
39925;DHT22;25592;49.986;11.618;2022-07-23T17:10:27;30.90;47.40
39925;DHT22;25592;49.986;11.618;2022-07-23T17:13:13;31.10;46.90
39925;DHT22;25592;49.986;11.618;2022-07-23T17:15:58;31.10;50.60
39925;DHT22;25592;49.986;11.618;2022-07-23T17:18:44;31.20;52.90
39925;DHT22;25592;49.986;11.618;2022-07-23T17:21:30;31.00;53.70
39925;DHT22;25592;49.986;11.618;2022-07-23T17:24:16;30.70;54.20
39925;DHT22;25592;49.986;11.618;2022-07-23T17:27:06;30.50;54.50
39925;DHT22;25592;49.986;11.618;2022-07-23T17:29:52;30.50;54.20
39925;DHT22;25592;49.986;11.618;2022-07-23T17:32:37;30.50;54.60
39925;DHT22;25592;49.986;11.618;2022-07-23T17:35:23;30.50;54.60
39925;DHT22;25592;49.986;11.618;2022-07-23T17:38:08;30.20;54.40
39925;DHT22;25592;49.986;11.618;2022-07-23T17:40:54;30.00;54.80
39925;DHT22;25592;49.986;11.618;2022-07-23T17:43:39;30.00;55.00